createdAt,value
2022-12-31T03:59:00.314Z,0.00
2022-12-31T04:00:00.153Z,0.00
2022-12-31T04:01:00.270Z,0.00
2022-12-31T04:02:00.283Z,0.00
2022-12-31T04:03:00.192Z,0.00
2022-12-31T04:04:00.121Z,0.00
2022-12-31T04:05:00.128Z,0.00
2022-12-31T04:06:00.133Z,0.00
2022-12-31T04:07:00.132Z,0.00
2022-12-31T04:08:00.146Z,0.00
2022-12-31T04:09:00.126Z,0.00
2022-12-31T04:10:00.134Z,0.00
2022-12-31T04:11:00.091Z,0.00
2022-12-31T04:12:00.092Z,0.00
2022-12-31T04:13:00.097Z,0.00
2022-12-31T04:14:00.071Z,0.00
2022-12-31T04:15:00.131Z,0.00
2022-12-31T04:16:00.139Z,0.00
2022-12-31T04:17:00.042Z,0.00
2022-12-31T04:18:00.054Z,0.00
2022-12-31T04:19:00.040Z,0.00
2022-12-31T04:20:00.043Z,0.00
2022-12-31T04:21:00.118Z,0.00
2022-12-31T04:22:00.029Z,0.00
2022-12-31T04:23:00.040Z,0.00
2022-12-31T04:24:00.028Z,0.00
2022-12-31T04:25:00.021Z,0.00
2022-12-31T04:26:00.016Z,0.00
2022-12-31T04:27:07.061Z,0.00
2022-12-31T04:27:59.997Z,0.00
2022-12-31T04:29:00.006Z,0.00
2022-12-31T04:29:59.992Z,0.00
2022-12-31T04:31:00.042Z,0.00
2022-12-31T04:32:00.019Z,0.00
2022-12-31T04:32:59.977Z,0.00
2022-12-31T04:33:59.972Z,0.00
2022-12-31T04:34:59.969Z,0.00
2022-12-31T04:35:59.993Z,0.00
2022-12-31T04:36:59.960Z,0.00
2022-12-31T04:37:59.952Z,0.00
2022-12-31T04:38:59.957Z,0.00
2022-12-31T04:40:05.402Z,0.00
2022-12-31T04:40:59.961Z,0.00
2022-12-31T04:41:59.938Z,0.00
2022-12-31T04:42:59.942Z,0.00
2022-12-31T04:43:59.960Z,0.00
2022-12-31T04:44:59.932Z,0.00
2022-12-31T04:45:59.975Z,0.00
2022-12-31T04:46:59.932Z,0.00
2022-12-31T04:47:59.936Z,0.00
2022-12-31T04:48:59.915Z,0.00
2022-12-31T04:49:59.915Z,0.00
2022-12-31T04:50:59.921Z,0.00
2022-12-31T04:51:59.923Z,0.00
2022-12-31T04:52:59.911Z,0.00
2022-12-31T04:53:59.897Z,0.00
2022-12-31T04:54:59.915Z,0.00
2022-12-31T04:55:59.888Z,0.00
2022-12-31T04:56:59.889Z,0.00
2022-12-31T04:57:59.874Z,0.00
2022-12-31T04:58:59.880Z,0.00
2022-12-31T04:59:59.869Z,0.00
2022-12-31T05:01:00.048Z,0.00
2022-12-31T05:02:00.008Z,0.00
2022-12-31T05:02:59.907Z,0.00
2022-12-31T05:03:59.865Z,0.00
2022-12-31T05:04:59.852Z,0.00
2022-12-31T05:05:59.872Z,0.00
2022-12-31T05:06:59.843Z,0.00
2022-12-31T05:07:59.867Z,0.00
2022-12-31T05:08:59.852Z,0.00
2022-12-31T05:09:59.838Z,0.00
2022-12-31T05:10:59.848Z,0.00
2022-12-31T05:11:59.847Z,0.00
2022-12-31T05:12:59.818Z,0.00
2022-12-31T05:13:59.822Z,0.00
2022-12-31T05:14:59.806Z,0.00
2022-12-31T05:15:59.802Z,0.00
2022-12-31T05:16:59.836Z,0.00
2022-12-31T05:17:59.806Z,0.00
2022-12-31T05:18:59.834Z,0.00
2022-12-31T05:19:59.794Z,0.00
2022-12-31T05:20:59.791Z,0.00
2022-12-31T05:21:59.784Z,0.00
2022-12-31T05:22:59.785Z,0.00
2022-12-31T05:23:59.791Z,0.00
2022-12-31T05:24:59.797Z,0.00
2022-12-31T05:25:59.778Z,0.00
2022-12-31T05:26:59.802Z,0.00
2022-12-31T05:27:59.755Z,0.00
2022-12-31T05:28:59.775Z,0.00
2022-12-31T05:29:59.769Z,0.00
2022-12-31T05:30:59.796Z,0.00
2022-12-31T05:31:59.761Z,0.00
2022-12-31T05:32:59.745Z,0.00
2022-12-31T05:33:59.751Z,0.00
2022-12-31T05:34:59.893Z,0.00
2022-12-31T05:35:59.729Z,0.00
2022-12-31T05:36:59.752Z,0.00
2022-12-31T05:37:59.745Z,0.00
2022-12-31T05:38:59.721Z,0.00
2022-12-31T05:39:59.716Z,0.00
2022-12-31T05:40:59.728Z,0.00
2022-12-31T05:41:59.711Z,0.00
2022-12-31T05:42:59.709Z,0.00
2022-12-31T05:43:59.696Z,0.00
2022-12-31T05:44:59.698Z,0.00
2022-12-31T05:45:59.752Z,0.00
2022-12-31T05:46:59.683Z,0.00
2022-12-31T05:47:59.683Z,0.00
2022-12-31T05:48:59.673Z,0.00
2022-12-31T05:49:59.669Z,0.00
2022-12-31T05:50:59.703Z,0.00
2022-12-31T05:51:59.672Z,0.00
2022-12-31T05:52:59.665Z,0.00
2022-12-31T05:53:59.662Z,0.00
2022-12-31T05:54:59.662Z,0.00
2022-12-31T05:55:59.664Z,0.00
2022-12-31T05:56:59.655Z,0.00
2022-12-31T05:57:59.638Z,0.00
2022-12-31T05:58:59.670Z,0.00
2022-12-31T05:59:59.634Z,0.00
2022-12-31T06:00:59.677Z,0.00
2022-12-31T06:01:59.630Z,0.00
2022-12-31T06:02:59.772Z,0.00
2022-12-31T06:03:59.675Z,0.00
2022-12-31T06:04:59.620Z,0.00
2022-12-31T06:05:59.609Z,0.00
2022-12-31T06:06:59.645Z,0.00
2022-12-31T06:07:59.607Z,0.00
2022-12-31T06:08:59.597Z,0.00
2022-12-31T06:09:59.602Z,0.00
2022-12-31T06:10:59.596Z,0.00
2022-12-31T06:11:59.609Z,0.00
2022-12-31T06:12:59.595Z,0.00
2022-12-31T06:13:59.582Z,0.00
2022-12-31T06:14:59.589Z,0.00
2022-12-31T06:15:59.653Z,0.00
2022-12-31T06:16:59.578Z,0.00
2022-12-31T06:17:59.595Z,0.00
2022-12-31T06:18:59.580Z,0.00
2022-12-31T06:19:59.561Z,0.00
2022-12-31T06:20:59.557Z,0.00
2022-12-31T06:21:59.552Z,0.00
2022-12-31T06:22:59.584Z,0.00
2022-12-31T06:23:59.551Z,0.00
2022-12-31T06:24:59.533Z,0.00
2022-12-31T06:25:59.527Z,0.00
2022-12-31T06:26:59.527Z,0.00
2022-12-31T06:27:59.532Z,0.00
2022-12-31T06:28:59.529Z,0.00
2022-12-31T06:29:59.520Z,0.00
2022-12-31T06:30:59.590Z,0.00
2022-12-31T06:31:59.511Z,0.00
2022-12-31T06:32:59.528Z,0.00
2022-12-31T06:33:59.504Z,0.00
2022-12-31T06:34:59.503Z,0.00
2022-12-31T06:35:59.505Z,0.00
2022-12-31T06:36:59.495Z,0.00
2022-12-31T06:37:59.501Z,0.00
2022-12-31T06:38:59.555Z,0.00
2022-12-31T06:39:59.486Z,0.00
2022-12-31T06:40:59.478Z,0.00
2022-12-31T06:41:59.468Z,0.00
2022-12-31T06:43:00.382Z,0.00
2022-12-31T06:43:59.463Z,0.00
2022-12-31T06:44:59.458Z,0.00
2022-12-31T06:45:59.476Z,0.00
2022-12-31T06:46:59.468Z,0.00
2022-12-31T06:47:59.465Z,0.00
2022-12-31T06:48:59.456Z,0.00
2022-12-31T06:49:59.444Z,0.00
2022-12-31T06:50:59.436Z,0.00
2022-12-31T06:51:59.468Z,0.00
2022-12-31T06:52:59.428Z,0.00
2022-12-31T06:53:59.441Z,0.00
2022-12-31T06:54:59.492Z,0.00
2022-12-31T06:55:59.413Z,0.00
2022-12-31T06:56:59.431Z,0.00
2022-12-31T06:57:59.423Z,0.00
2022-12-31T06:58:59.424Z,0.00
2022-12-31T06:59:59.410Z,0.00
2022-12-31T07:00:59.460Z,0.00
2022-12-31T07:01:59.545Z,0.00
2022-12-31T07:02:59.413Z,0.00
2022-12-31T07:03:59.390Z,0.00
2022-12-31T07:04:59.388Z,0.00
2022-12-31T07:05:59.400Z,0.00
2022-12-31T07:06:59.374Z,0.00
2022-12-31T07:07:59.378Z,0.00
2022-12-31T07:08:59.370Z,0.00
2022-12-31T07:09:59.364Z,0.00
2022-12-31T07:10:59.383Z,0.00
2022-12-31T07:11:59.362Z,0.00
2022-12-31T07:12:59.391Z,0.00
2022-12-31T07:13:59.344Z,0.00
2022-12-31T07:14:59.355Z,0.00
2022-12-31T07:15:59.379Z,0.00
2022-12-31T07:16:59.334Z,0.00
2022-12-31T07:17:59.335Z,0.00
2022-12-31T07:18:59.352Z,0.00
2022-12-31T07:19:59.346Z,0.00
2022-12-31T07:20:59.331Z,0.00
2022-12-31T07:21:59.326Z,0.00
2022-12-31T07:22:59.313Z,0.00
2022-12-31T07:23:59.311Z,0.00
2022-12-31T07:24:59.314Z,0.00
2022-12-31T07:25:59.302Z,0.00
2022-12-31T07:26:59.314Z,0.00
2022-12-31T07:27:59.298Z,0.00
2022-12-31T07:28:59.324Z,0.00
2022-12-31T07:29:59.293Z,0.00
2022-12-31T07:30:59.308Z,0.00
2022-12-31T07:31:59.292Z,0.00
2022-12-31T07:32:59.272Z,0.00
2022-12-31T07:33:59.282Z,0.00
2022-12-31T07:34:59.272Z,0.00
2022-12-31T07:35:59.320Z,0.00
2022-12-31T07:36:59.280Z,0.00
2022-12-31T07:37:59.264Z,0.00
2022-12-31T07:38:59.262Z,0.00
2022-12-31T07:39:59.255Z,0.00
2022-12-31T07:41:02.694Z,0.00
2022-12-31T07:41:59.242Z,0.00
2022-12-31T07:42:59.257Z,0.00
2022-12-31T07:43:59.254Z,0.00
2022-12-31T07:44:59.256Z,0.00
2022-12-31T07:45:59.235Z,0.00
2022-12-31T07:46:59.294Z,0.00
2022-12-31T07:48:02.828Z,0.00
2022-12-31T07:48:59.221Z,0.00
2022-12-31T07:49:59.233Z,0.00
2022-12-31T07:50:59.230Z,0.00
2022-12-31T07:51:59.226Z,0.00
2022-12-31T07:52:59.212Z,0.00
2022-12-31T07:53:59.199Z,0.00
2022-12-31T07:54:59.203Z,0.00
2022-12-31T07:55:59.220Z,0.00
2022-12-31T07:56:59.204Z,0.00
2022-12-31T07:57:59.181Z,0.00
2022-12-31T07:58:59.201Z,0.00
2022-12-31T07:59:59.191Z,0.00
2022-12-31T08:00:59.274Z,0.00
2022-12-31T08:01:59.298Z,0.00
2022-12-31T08:02:59.237Z,0.00
2022-12-31T08:03:59.165Z,0.00
2022-12-31T08:04:59.164Z,5.63
2022-12-31T08:05:59.177Z,5.63
2022-12-31T08:06:59.141Z,5.63
2022-12-31T08:07:59.150Z,5.63
2022-12-31T08:08:59.139Z,5.63
2022-12-31T08:09:59.154Z,5.63
2022-12-31T08:10:59.155Z,5.63
2022-12-31T08:11:59.124Z,5.63
2022-12-31T08:12:59.138Z,5.63
2022-12-31T08:13:59.117Z,5.63
2022-12-31T08:14:59.148Z,5.63
2022-12-31T08:15:59.217Z,5.63
2022-12-31T08:16:59.113Z,5.63
2022-12-31T08:17:59.110Z,5.63
2022-12-31T08:18:59.126Z,5.63
2022-12-31T08:19:59.105Z,5.63
2022-12-31T08:20:59.115Z,5.63
2022-12-31T08:21:59.101Z,5.63
2022-12-31T08:22:59.114Z,5.63
2022-12-31T08:23:59.091Z,5.63
2022-12-31T08:24:59.095Z,5.63
2022-12-31T08:25:59.102Z,5.63
2022-12-31T08:26:59.077Z,5.63
2022-12-31T08:27:59.066Z,5.63
2022-12-31T08:28:59.072Z,11.25
2022-12-31T08:29:59.089Z,11.25
2022-12-31T08:30:59.069Z,5.63
2022-12-31T08:31:59.141Z,5.63
2022-12-31T08:32:59.054Z,5.63
2022-12-31T08:34:03.839Z,5.63
2022-12-31T08:34:59.039Z,5.63
2022-12-31T08:35:59.077Z,5.63
2022-12-31T08:36:59.044Z,5.63
2022-12-31T08:37:59.048Z,11.25
2022-12-31T08:38:59.041Z,11.25
2022-12-31T08:39:59.036Z,11.25
2022-12-31T08:40:59.044Z,11.25
2022-12-31T08:41:59.011Z,11.25
2022-12-31T08:42:59.014Z,16.88
2022-12-31T08:43:59.033Z,11.25
2022-12-31T08:44:59.034Z,11.25
2022-12-31T08:45:59.067Z,11.25
2022-12-31T08:46:59.027Z,16.88
2022-12-31T08:48:00.212Z,16.88
2022-12-31T08:48:58.987Z,16.88
2022-12-31T08:49:58.986Z,16.88
2022-12-31T08:50:59.009Z,11.25
2022-12-31T08:51:58.979Z,11.25
2022-12-31T08:52:58.977Z,11.25
2022-12-31T08:53:58.978Z,5.63
2022-12-31T08:54:58.982Z,11.25
2022-12-31T08:55:58.975Z,11.25
2022-12-31T08:56:58.963Z,16.88
2022-12-31T08:57:58.958Z,11.25
2022-12-31T08:58:58.968Z,11.25
2022-12-31T08:59:58.958Z,11.25
2022-12-31T09:00:59.069Z,11.25
2022-12-31T09:01:59.089Z,11.25
2022-12-31T09:02:58.985Z,11.25
2022-12-31T09:03:58.954Z,11.25
2022-12-31T09:04:58.986Z,11.25
2022-12-31T09:05:58.946Z,11.25
2022-12-31T09:06:58.946Z,11.25
2022-12-31T09:07:58.937Z,11.25
2022-12-31T09:08:58.971Z,11.25
2022-12-31T09:09:58.914Z,11.25
2022-12-31T09:10:58.910Z,16.88
2022-12-31T09:11:58.931Z,16.88
2022-12-31T09:12:58.903Z,11.25
2022-12-31T09:13:58.927Z,11.25
2022-12-31T09:14:58.899Z,11.25
2022-12-31T09:15:58.901Z,5.63
2022-12-31T09:16:58.940Z,5.63
2022-12-31T09:17:58.892Z,5.63
2022-12-31T09:18:58.892Z,5.63
2022-12-31T09:19:58.877Z,5.63
2022-12-31T09:20:58.881Z,5.63
2022-12-31T09:21:58.882Z,5.63
2022-12-31T09:22:58.907Z,5.63
2022-12-31T09:24:01.848Z,5.63
2022-12-31T09:24:58.873Z,5.63
2022-12-31T09:25:58.882Z,11.25
2022-12-31T09:26:58.855Z,11.25
2022-12-31T09:27:58.868Z,11.25
2022-12-31T09:28:58.851Z,11.25
2022-12-31T09:29:58.866Z,11.25
2022-12-31T09:30:58.849Z,11.25
2022-12-31T09:31:58.876Z,11.25
2022-12-31T09:33:01.380Z,11.25
2022-12-31T09:33:58.836Z,16.88
2022-12-31T09:34:58.848Z,22.50
2022-12-31T09:35:58.824Z,16.88
2022-12-31T09:36:58.820Z,16.88
2022-12-31T09:37:58.831Z,16.88
2022-12-31T09:38:58.811Z,22.50
2022-12-31T09:39:58.812Z,22.50
2022-12-31T09:40:58.804Z,22.50
2022-12-31T09:41:58.797Z,22.50
2022-12-31T09:42:58.801Z,22.50
2022-12-31T09:44:01.157Z,22.50
2022-12-31T09:44:58.802Z,22.50
2022-12-31T09:45:58.823Z,22.50
2022-12-31T09:46:58.796Z,22.50
2022-12-31T09:47:58.782Z,22.50
2022-12-31T09:48:58.784Z,22.50
2022-12-31T09:49:58.780Z,22.50
2022-12-31T09:50:58.798Z,16.88
2022-12-31T09:51:58.764Z,16.88
2022-12-31T09:52:58.762Z,16.88
2022-12-31T09:53:58.762Z,16.88
2022-12-31T09:54:58.767Z,16.88
2022-12-31T09:55:58.758Z,16.88
2022-12-31T09:56:59.365Z,16.88
2022-12-31T09:57:58.759Z,11.25
2022-12-31T09:58:58.750Z,11.25
2022-12-31T09:59:58.747Z,11.25
2022-12-31T10:00:58.851Z,11.25
2022-12-31T10:01:58.886Z,11.25
2022-12-31T10:13:14.792Z,11.25
2022-12-31T10:14:14.755Z,16.88
2022-12-31T10:15:14.751Z,22.50
2022-12-31T10:16:14.767Z,22.50
2022-12-31T10:17:14.743Z,16.88
2022-12-31T10:18:14.735Z,16.88
2022-12-31T10:19:14.726Z,11.25
2022-12-31T10:20:14.706Z,11.25
2022-12-31T10:21:14.699Z,16.88
2022-12-31T10:22:14.699Z,22.50
2022-12-31T10:23:14.689Z,22.50
2022-12-31T10:24:14.698Z,28.13
2022-12-31T10:25:14.692Z,33.75
2022-12-31T10:26:14.679Z,28.13
2022-12-31T10:27:14.682Z,22.50
2022-12-31T10:28:14.673Z,22.50
2022-12-31T10:29:14.680Z,22.50
2022-12-31T10:30:14.669Z,16.88
2022-12-31T10:31:14.712Z,22.50
2022-12-31T10:32:14.656Z,22.50
2022-12-31T10:33:14.657Z,22.50
2022-12-31T10:34:14.661Z,22.50
2022-12-31T10:35:14.653Z,16.88
2022-12-31T10:36:14.651Z,16.88
2022-12-31T10:37:14.633Z,16.88
2022-12-31T10:38:14.633Z,22.50
2022-12-31T10:39:20.467Z,28.13
2022-12-31T10:40:14.637Z,33.75
2022-12-31T10:41:14.658Z,45.00
2022-12-31T10:42:14.620Z,50.63
2022-12-31T10:43:14.624Z,50.63
2022-12-31T10:44:14.615Z,56.25
2022-12-31T10:45:14.617Z,56.25
2022-12-31T10:46:20.794Z,56.25
2022-12-31T10:47:14.644Z,61.88
2022-12-31T10:48:14.607Z,73.13
2022-12-31T10:49:14.590Z,78.75
2022-12-31T10:50:14.603Z,84.38
2022-12-31T10:51:14.599Z,84.38
2022-12-31T10:52:14.603Z,78.75
2022-12-31T10:53:14.582Z,78.75
2022-12-31T10:54:14.586Z,73.13
2022-12-31T10:55:14.602Z,73.13
2022-12-31T10:56:14.592Z,67.50
2022-12-31T10:57:14.573Z,61.88
2022-12-31T10:58:14.573Z,56.25
2022-12-31T10:59:14.576Z,56.25
2022-12-31T11:00:14.553Z,56.25
2022-12-31T11:01:14.739Z,56.25
2022-12-31T11:02:14.764Z,56.25
2022-12-31T11:03:14.693Z,50.63
2022-12-31T11:04:14.543Z,39.38
2022-12-31T11:05:14.546Z,33.75
2022-12-31T11:06:14.567Z,33.75
2022-12-31T11:07:14.548Z,39.38
2022-12-31T11:08:14.528Z,50.63
2022-12-31T11:09:14.529Z,56.25
2022-12-31T11:10:14.533Z,67.50
2022-12-31T11:11:14.558Z,78.75
2022-12-31T11:12:14.514Z,84.38
2022-12-31T11:13:14.522Z,78.75
2022-12-31T11:14:14.549Z,67.50
2022-12-31T11:15:14.530Z,61.88
2022-12-31T11:16:14.573Z,56.25
2022-12-31T11:17:14.512Z,45.00
2022-12-31T11:18:14.507Z,39.38
2022-12-31T11:19:14.512Z,28.13
2022-12-31T11:20:14.510Z,22.50
2022-12-31T11:21:14.494Z,16.88
2022-12-31T11:22:14.491Z,16.88
2022-12-31T11:23:14.494Z,16.88
2022-12-31T11:24:14.475Z,22.50
2022-12-31T11:25:14.494Z,22.50
2022-12-31T11:26:14.475Z,22.50
2022-12-31T11:27:14.484Z,22.50
2022-12-31T11:28:14.485Z,28.13
2022-12-31T11:29:14.469Z,28.13
2022-12-31T11:30:14.466Z,28.13
2022-12-31T11:31:14.495Z,22.50
2022-12-31T11:32:14.473Z,22.50
2022-12-31T11:33:14.497Z,22.50
2022-12-31T11:34:14.459Z,16.88
2022-12-31T11:35:14.509Z,22.50
2022-12-31T11:36:14.452Z,28.13
2022-12-31T11:37:14.437Z,33.75
2022-12-31T11:38:14.465Z,39.38
2022-12-31T11:39:14.430Z,33.75
2022-12-31T11:40:14.522Z,28.13
2022-12-31T11:41:14.430Z,33.75
2022-12-31T11:42:14.430Z,73.13
2022-12-31T11:43:14.444Z,95.63
2022-12-31T11:44:14.417Z,95.63
2022-12-31T11:45:14.429Z,73.13
2022-12-31T11:46:14.464Z,45.00
2022-12-31T11:47:14.415Z,45.00
2022-12-31T11:48:31.293Z,50.63
2022-12-31T11:49:14.413Z,84.38
2022-12-31T11:50:14.441Z,95.63
2022-12-31T11:51:14.414Z,95.63
2022-12-31T11:52:19.569Z,84.38
2022-12-31T11:54:14.392Z,56.25
2022-12-31T11:55:14.455Z,50.63
2022-12-31T11:56:14.384Z,45.00
2022-12-31T11:57:14.386Z,50.63
2022-12-31T11:58:14.405Z,50.63
2022-12-31T11:59:19.016Z,50.63
2022-12-31T12:00:14.490Z,39.38
2022-12-31T12:01:14.408Z,28.13
2022-12-31T12:02:14.362Z,22.50
2022-12-31T12:03:14.408Z,22.50
2022-12-31T12:04:14.425Z,22.50
2022-12-31T12:05:14.367Z,45.00
2022-12-31T12:06:14.364Z,50.63
2022-12-31T12:07:14.344Z,45.00
2022-12-31T12:08:14.341Z,39.38
2022-12-31T12:09:14.341Z,56.25
2022-12-31T12:10:14.355Z,50.63
2022-12-31T12:11:14.343Z,78.75
2022-12-31T12:12:14.339Z,84.38
2022-12-31T12:13:14.355Z,67.50
2022-12-31T12:14:14.329Z,45.00
2022-12-31T12:15:14.323Z,33.75
2022-12-31T12:16:14.371Z,28.13
2022-12-31T12:17:14.318Z,16.88
2022-12-31T12:18:14.313Z,16.88
2022-12-31T12:19:14.320Z,22.50
2022-12-31T12:20:14.318Z,22.50
2022-12-31T12:21:14.314Z,16.88
2022-12-31T12:22:14.386Z,22.50
2022-12-31T12:23:14.294Z,16.88
2022-12-31T12:24:14.296Z,16.88
2022-12-31T12:25:14.302Z,28.13
2022-12-31T12:26:14.294Z,39.38
2022-12-31T12:27:14.296Z,39.38
2022-12-31T12:28:14.288Z,39.38
2022-12-31T12:29:14.315Z,39.38
2022-12-31T12:30:14.300Z,28.13
2022-12-31T12:31:14.336Z,39.38
2022-12-31T12:32:14.273Z,56.25
2022-12-31T12:33:14.272Z,33.75
2022-12-31T12:34:14.268Z,33.75
2022-12-31T12:35:14.258Z,33.75
2022-12-31T12:36:14.259Z,61.88
2022-12-31T12:37:14.263Z,73.13
2022-12-31T12:38:14.277Z,73.13
2022-12-31T12:39:14.256Z,50.63
2022-12-31T12:40:14.251Z,56.25
2022-12-31T12:41:14.241Z,78.75
2022-12-31T12:42:14.247Z,90.00
2022-12-31T12:43:14.236Z,78.75
2022-12-31T12:44:14.240Z,61.88
2022-12-31T12:45:14.233Z,45.00
2022-12-31T12:46:14.272Z,50.63
2022-12-31T12:47:14.317Z,61.88
2022-12-31T12:48:14.231Z,67.50
2022-12-31T12:49:14.219Z,67.50
2022-12-31T12:50:14.220Z,50.63
2022-12-31T12:51:14.215Z,45.00
2022-12-31T12:52:14.214Z,61.88
2022-12-31T12:53:14.215Z,50.63
2022-12-31T12:54:14.243Z,45.00
2022-12-31T12:55:14.222Z,45.00
2022-12-31T12:56:14.210Z,50.63
2022-12-31T12:57:14.211Z,50.63
2022-12-31T12:58:18.829Z,56.25
2022-12-31T12:59:14.195Z,56.25
2022-12-31T13:00:14.189Z,56.25
2022-12-31T13:01:14.370Z,56.25
2022-12-31T13:02:14.279Z,56.25
2022-12-31T13:03:14.180Z,56.25
2022-12-31T13:04:44.018Z,61.88
2022-12-31T13:05:14.194Z,61.88
2022-12-31T13:06:14.187Z,61.88
2022-12-31T13:07:14.179Z,61.88
2022-12-31T13:08:14.159Z,56.25
2022-12-31T13:09:14.173Z,56.25
2022-12-31T13:10:14.165Z,50.63
2022-12-31T13:11:14.149Z,39.38
2022-12-31T13:12:14.160Z,33.75
2022-12-31T13:13:24.005Z,33.75
2022-12-31T13:14:14.155Z,33.75
2022-12-31T13:15:14.148Z,33.75
2022-12-31T13:16:14.228Z,33.75
2022-12-31T13:17:14.146Z,33.75
2022-12-31T13:18:14.149Z,33.75
2022-12-31T13:19:14.125Z,28.13
2022-12-31T13:20:14.122Z,28.13
2022-12-31T13:21:14.141Z,28.13
2022-12-31T13:22:14.121Z,33.75
2022-12-31T13:23:14.145Z,33.75
2022-12-31T13:24:14.129Z,28.13
2022-12-31T13:25:14.127Z,22.50
2022-12-31T13:26:14.112Z,16.88
2022-12-31T13:27:14.110Z,16.88
2022-12-31T13:28:14.129Z,16.88
2022-12-31T13:29:14.115Z,16.88
2022-12-31T13:30:14.105Z,11.25
2022-12-31T13:31:14.169Z,11.25
2022-12-31T13:32:14.096Z,11.25
2022-12-31T13:33:14.093Z,11.25
2022-12-31T13:34:14.087Z,16.88
2022-12-31T13:35:14.086Z,16.88
2022-12-31T13:36:14.078Z,16.88
2022-12-31T13:37:14.085Z,16.88
2022-12-31T13:38:14.072Z,11.25
2022-12-31T13:39:14.078Z,11.25
2022-12-31T13:40:14.066Z,11.25
2022-12-31T13:41:14.065Z,11.25
2022-12-31T13:42:14.087Z,11.25
2022-12-31T13:43:14.066Z,11.25
2022-12-31T13:44:14.092Z,11.25
2022-12-31T13:45:14.060Z,11.25
2022-12-31T13:46:14.073Z,11.25
2022-12-31T13:47:14.058Z,11.25
2022-12-31T13:48:14.050Z,11.25
2022-12-31T13:49:14.115Z,11.25
2022-12-31T13:50:14.687Z,11.25
2022-12-31T13:51:14.021Z,11.25
2022-12-31T13:52:14.035Z,11.25
2022-12-31T13:53:14.017Z,11.25
2022-12-31T13:54:14.144Z,11.25
2022-12-31T13:55:14.009Z,11.25
2022-12-31T13:56:14.008Z,11.25
2022-12-31T13:57:14.032Z,11.25
2022-12-31T13:58:14.004Z,11.25
2022-12-31T13:59:13.996Z,16.88
2022-12-31T14:00:13.995Z,16.88
2022-12-31T14:01:14.094Z,16.88
2022-12-31T14:02:14.232Z,16.88
2022-12-31T14:03:14.097Z,16.88
2022-12-31T14:04:14.025Z,16.88
2022-12-31T14:05:13.975Z,16.88
2022-12-31T14:06:13.980Z,11.25
2022-12-31T14:07:13.973Z,11.25
2022-12-31T14:08:13.970Z,11.25
2022-12-31T14:09:13.961Z,11.25
2022-12-31T14:10:13.976Z,11.25
2022-12-31T14:11:13.972Z,11.25
2022-12-31T14:12:13.959Z,5.63
2022-12-31T14:13:13.999Z,5.63
2022-12-31T14:14:13.948Z,5.63
2022-12-31T14:15:13.982Z,5.63
2022-12-31T14:16:13.989Z,5.63
2022-12-31T14:17:13.941Z,5.63
2022-12-31T14:18:13.933Z,11.25
2022-12-31T14:19:13.932Z,11.25
2022-12-31T14:20:13.961Z,5.63
2022-12-31T14:21:13.932Z,5.63
2022-12-31T14:22:13.920Z,5.63
2022-12-31T14:23:13.930Z,5.63
2022-12-31T14:24:13.915Z,5.63
2022-12-31T14:25:13.914Z,5.63
2022-12-31T14:26:13.907Z,5.63
2022-12-31T14:27:13.932Z,5.63
2022-12-31T14:28:13.895Z,5.63
2022-12-31T14:29:13.922Z,5.63
2022-12-31T14:30:13.903Z,5.63
2022-12-31T14:31:13.898Z,5.63
2022-12-31T14:32:13.892Z,0.00
2022-12-31T14:33:13.880Z,0.00
2022-12-31T14:34:13.892Z,0.00
2022-12-31T14:35:13.876Z,0.00
2022-12-31T14:36:13.879Z,0.00
2022-12-31T14:37:13.874Z,5.63
2022-12-31T14:38:13.867Z,5.63
2022-12-31T14:39:13.873Z,5.63
2022-12-31T14:40:13.860Z,5.63
2022-12-31T14:41:13.854Z,5.63
2022-12-31T14:42:13.867Z,5.63
2022-12-31T14:43:13.850Z,0.00
2022-12-31T14:44:13.864Z,0.00
2022-12-31T14:45:13.853Z,0.00
2022-12-31T14:46:13.881Z,5.63
2022-12-31T14:47:13.846Z,5.63
2022-12-31T14:48:17.104Z,5.63
2022-12-31T14:49:13.835Z,0.00
2022-12-31T14:50:13.825Z,0.00
2022-12-31T14:51:13.821Z,0.00
2022-12-31T14:52:13.815Z,0.00
2022-12-31T14:53:13.819Z,0.00
2022-12-31T14:54:13.818Z,0.00
2022-12-31T14:55:13.832Z,0.00
2022-12-31T14:56:13.795Z,0.00
2022-12-31T14:57:13.807Z,0.00
2022-12-31T14:58:29.473Z,0.00
2022-12-31T14:59:13.800Z,0.00
2022-12-31T15:00:13.796Z,0.00
2022-12-31T15:01:14.039Z,0.00
2022-12-31T15:02:14.047Z,0.00
2022-12-31T15:03:13.855Z,0.00
2022-12-31T15:04:13.767Z,0.00
2022-12-31T15:05:13.777Z,0.00
2022-12-31T15:06:13.764Z,0.00
2022-12-31T15:07:13.773Z,0.00
2022-12-31T15:08:13.792Z,0.00
2022-12-31T15:09:13.762Z,0.00
2022-12-31T15:10:13.745Z,0.00
2022-12-31T15:11:13.745Z,0.00
2022-12-31T15:12:13.764Z,0.00
2022-12-31T15:13:13.731Z,0.00
2022-12-31T15:14:13.724Z,0.00
2022-12-31T15:15:13.745Z,0.00
2022-12-31T15:16:13.724Z,0.00
2022-12-31T15:17:13.770Z,0.00
2022-12-31T15:18:13.724Z,0.00
2022-12-31T15:19:13.709Z,0.00
2022-12-31T15:20:17.671Z,0.00
2022-12-31T15:21:13.751Z,0.00
2022-12-31T15:22:13.700Z,0.00
2022-12-31T15:23:13.693Z,0.00
2022-12-31T15:24:13.706Z,0.00
2022-12-31T15:25:13.692Z,0.00
2022-12-31T15:26:13.691Z,0.00
2022-12-31T15:27:13.676Z,0.00
2022-12-31T15:28:13.696Z,0.00
2022-12-31T15:29:13.684Z,0.00
2022-12-31T15:30:13.684Z,0.00
2022-12-31T15:31:18.184Z,0.00
2022-12-31T15:32:13.680Z,0.00
2022-12-31T15:33:13.699Z,0.00
2022-12-31T15:34:13.649Z,0.00
2022-12-31T15:35:13.647Z,0.00
2022-12-31T15:36:13.720Z,0.00
2022-12-31T15:37:13.650Z,0.00
2022-12-31T15:38:13.654Z,0.00
2022-12-31T15:39:13.646Z,0.00
2022-12-31T15:40:13.639Z,0.00
2022-12-31T15:41:13.628Z,0.00
2022-12-31T15:42:37.776Z,0.00
2022-12-31T15:43:13.624Z,0.00
2022-12-31T15:44:13.635Z,0.00
2022-12-31T15:45:13.632Z,0.00
2022-12-31T15:46:13.636Z,0.00
2022-12-31T15:47:13.607Z,0.00
2022-12-31T15:48:13.596Z,0.00
2022-12-31T15:49:16.063Z,0.00
2022-12-31T15:50:13.607Z,0.00
2022-12-31T15:51:13.586Z,0.00
2022-12-31T15:52:13.582Z,0.00
2022-12-31T15:53:13.579Z,0.00
2022-12-31T15:54:13.604Z,0.00
2022-12-31T15:55:13.570Z,0.00
2022-12-31T15:56:13.565Z,0.00
2022-12-31T15:57:13.571Z,0.00
2022-12-31T15:58:13.562Z,0.00
2022-12-31T15:59:13.577Z,0.00
2022-12-31T16:00:13.554Z,0.00
2022-12-31T16:12:34.455Z,0.00
2022-12-31T16:13:31.494Z,0.00
2022-12-31T16:14:31.486Z,0.00
2022-12-31T16:15:31.569Z,0.00
2022-12-31T16:16:31.546Z,0.00
2022-12-31T16:17:31.460Z,0.00
2022-12-31T16:18:31.462Z,0.00
2022-12-31T16:19:31.447Z,0.00
2022-12-31T16:20:31.480Z,0.00
2022-12-31T16:21:31.454Z,0.00
2022-12-31T16:22:31.438Z,0.00
2022-12-31T16:23:31.452Z,0.00
2022-12-31T16:24:31.429Z,0.00
2022-12-31T16:25:32.527Z,0.00
2022-12-31T16:26:31.437Z,0.00
2022-12-31T16:27:31.421Z,0.00
2022-12-31T16:28:31.429Z,0.00
2022-12-31T16:29:31.404Z,0.00
2022-12-31T16:30:31.419Z,0.00
2022-12-31T16:31:31.467Z,0.00
2022-12-31T16:32:31.394Z,0.00
2022-12-31T16:33:31.391Z,0.00
2022-12-31T16:34:31.386Z,0.00
2022-12-31T16:35:31.407Z,0.00
2022-12-31T16:36:31.376Z,0.00
2022-12-31T16:37:31.370Z,0.00
2022-12-31T16:38:31.368Z,0.00
2022-12-31T16:39:31.371Z,0.00
2022-12-31T16:40:31.388Z,0.00
2022-12-31T16:41:31.367Z,0.00
2022-12-31T16:42:31.393Z,0.00
2022-12-31T16:43:31.355Z,0.00
2022-12-31T16:44:31.365Z,0.00
2022-12-31T16:45:31.359Z,0.00
2022-12-31T16:46:31.412Z,0.00
2022-12-31T16:47:31.335Z,0.00
2022-12-31T16:48:31.334Z,0.00
2022-12-31T16:49:31.327Z,0.00
2022-12-31T16:50:31.329Z,0.00
2022-12-31T16:51:31.365Z,0.00
2022-12-31T16:52:31.320Z,0.00
2022-12-31T16:53:31.306Z,0.00
2022-12-31T16:54:31.291Z,0.00
2022-12-31T16:55:31.297Z,0.00
2022-12-31T16:56:31.300Z,0.00
2022-12-31T16:57:31.292Z,0.00
2022-12-31T16:58:31.294Z,0.00
2022-12-31T16:59:35.207Z,0.00
2022-12-31T17:00:31.319Z,0.00
2022-12-31T17:01:31.419Z,0.00
2022-12-31T17:02:31.370Z,0.00
2022-12-31T17:03:31.331Z,0.00
2022-12-31T17:04:31.272Z,0.00
2022-12-31T17:05:31.252Z,0.00
2022-12-31T17:06:31.260Z,0.00
2022-12-31T17:07:31.246Z,0.00
2022-12-31T17:08:31.239Z,0.00
2022-12-31T17:09:31.235Z,0.00
2022-12-31T17:10:31.269Z,0.00
2022-12-31T17:11:31.263Z,0.00
2022-12-31T17:12:37.552Z,0.00
2022-12-31T17:13:31.234Z,0.00
2022-12-31T17:14:31.220Z,0.00
2022-12-31T17:15:31.214Z,0.00
2022-12-31T17:16:31.309Z,0.00
2022-12-31T17:17:31.208Z,0.00
2022-12-31T17:18:31.199Z,0.00
2022-12-31T17:19:31.200Z,0.00
2022-12-31T17:20:31.193Z,0.00
2022-12-31T17:21:31.220Z,0.00
2022-12-31T17:22:36.416Z,0.00
2022-12-31T17:23:31.186Z,0.00
2022-12-31T17:24:31.177Z,0.00
2022-12-31T17:25:31.176Z,0.00
2022-12-31T17:26:31.245Z,0.00
2022-12-31T17:27:31.189Z,0.00
2022-12-31T17:28:31.160Z,0.00